sensor_id;sensor_type;location;lat;lon;timestamp;P1;durP1;ratioP1;P2;durP2;ratioP2
70505;SDS011;58032;49.820;6.274;2024-01-30T00:01:24;15.27;;;7.45;;
70505;SDS011;58032;49.820;6.274;2024-01-30T00:03:51;15.07;;;7.03;;
70505;SDS011;58032;49.820;6.274;2024-01-30T00:06:19;19.30;;;7.60;;
70505;SDS011;58032;49.820;6.274;2024-01-30T00:08:47;16.38;;;7.22;;
70505;SDS011;58032;49.820;6.274;2024-01-30T00:11:15;16.83;;;7.80;;
70505;SDS011;58032;49.820;6.274;2024-01-30T00:13:43;16.25;;;7.38;;
70505;SDS011;58032;49.820;6.274;2024-01-30T00:16:32;18.02;;;7.32;;
70505;SDS011;58032;49.820;6.274;2024-01-30T00:18:57;18.83;;;7.43;;
70505;SDS011;58032;49.820;6.274;2024-01-30T00:21:25;15.95;;;7.32;;
70505;SDS011;58032;49.820;6.274;2024-01-30T00:23:52;19.20;;;7.35;;
70505;SDS011;58032;49.820;6.274;2024-01-30T00:26:19;13.70;;;6.80;;
70505;SDS011;58032;49.820;6.274;2024-01-30T00:28:46;17.13;;;7.35;;
70505;SDS011;58032;49.820;6.274;2024-01-30T00:31:13;17.47;;;7.50;;
70505;SDS011;58032;49.820;6.274;2024-01-30T00:33:40;13.75;;;7.20;;
70505;SDS011;58032;49.820;6.274;2024-01-30T00:36:07;16.67;;;7.45;;
70505;SDS011;58032;49.820;6.274;2024-01-30T00:38:35;14.27;;;7.32;;
70505;SDS011;58032;49.820;6.274;2024-01-30T00:41:02;19.73;;;7.45;;
70505;SDS011;58032;49.820;6.274;2024-01-30T00:43:29;16.30;;;7.43;;
70505;SDS011;58032;49.820;6.274;2024-01-30T00:45:58;20.20;;;8.30;;
70505;SDS011;58032;49.820;6.274;2024-01-30T00:48:25;16.20;;;7.90;;
70505;SDS011;58032;49.820;6.274;2024-01-30T00:50:52;15.07;;;7.38;;
70505;SDS011;58032;49.820;6.274;2024-01-30T00:53:19;19.58;;;7.40;;
70505;SDS011;58032;49.820;6.274;2024-01-30T00:55:46;14.83;;;7.53;;
70505;SDS011;58032;49.820;6.274;2024-01-30T00:58:13;14.65;;;7.30;;
70505;SDS011;58032;49.820;6.274;2024-01-30T01:00:40;16.27;;;7.82;;
70505;SDS011;58032;49.820;6.274;2024-01-30T01:03:07;16.35;;;7.72;;
70505;SDS011;58032;49.820;6.274;2024-01-30T01:05:35;14.05;;;7.20;;
70505;SDS011;58032;49.820;6.274;2024-01-30T01:08:02;18.50;;;7.67;;
70505;SDS011;58032;49.820;6.274;2024-01-30T01:10:29;15.75;;;6.60;;
70505;SDS011;58032;49.820;6.274;2024-01-30T01:12:56;16.17;;;7.47;;
70505;SDS011;58032;49.820;6.274;2024-01-30T01:15:23;15.88;;;7.40;;
70505;SDS011;58032;49.820;6.274;2024-01-30T01:17:51;18.33;;;7.53;;
70505;SDS011;58032;49.820;6.274;2024-01-30T01:20:18;16.00;;;7.60;;
70505;SDS011;58032;49.820;6.274;2024-01-30T01:22:45;17.80;;;7.13;;
70505;SDS011;58032;49.820;6.274;2024-01-30T01:25:12;20.77;;;8.00;;
70505;SDS011;58032;49.820;6.274;2024-01-30T01:27:39;16.90;;;6.47;;
70505;SDS011;58032;49.820;6.274;2024-01-30T01:30:08;14.40;;;6.20;;
70505;SDS011;58032;49.820;6.274;2024-01-30T01:32:36;12.47;;;6.00;;
70505;SDS011;58032;49.820;6.274;2024-01-30T01:35:04;15.25;;;6.35;;
70505;SDS011;58032;49.820;6.274;2024-01-30T01:37:34;14.02;;;6.60;;
70505;SDS011;58032;49.820;6.274;2024-01-30T01:40:01;18.17;;;6.65;;
70505;SDS011;58032;49.820;6.274;2024-01-30T01:42:29;12.10;;;6.60;;
70505;SDS011;58032;49.820;6.274;2024-01-30T01:44:56;17.90;;;6.97;;
70505;SDS011;58032;49.820;6.274;2024-01-30T01:47:23;18.42;;;7.20;;
70505;SDS011;58032;49.820;6.274;2024-01-30T01:49:50;18.02;;;7.32;;
70505;SDS011;58032;49.820;6.274;2024-01-30T01:52:17;18.65;;;6.50;;
70505;SDS011;58032;49.820;6.274;2024-01-30T01:54:44;17.38;;;6.72;;
70505;SDS011;58032;49.820;6.274;2024-01-30T01:57:11;15.50;;;6.80;;
70505;SDS011;58032;49.820;6.274;2024-01-30T01:59:39;16.27;;;6.65;;
70505;SDS011;58032;49.820;6.274;2024-01-30T02:02:06;16.38;;;6.70;;
70505;SDS011;58032;49.820;6.274;2024-01-30T02:04:38;17.00;;;6.72;;
70505;SDS011;58032;49.820;6.274;2024-01-30T02:07:05;15.27;;;7.13;;
70505;SDS011;58032;49.820;6.274;2024-01-30T02:09:32;12.53;;;6.07;;
70505;SDS011;58032;49.820;6.274;2024-01-30T02:11:59;12.90;;;6.45;;
70505;SDS011;58032;49.820;6.274;2024-01-30T02:14:26;14.82;;;6.65;;
70505;SDS011;58032;49.820;6.274;2024-01-30T02:16:55;13.88;;;6.78;;
70505;SDS011;58032;49.820;6.274;2024-01-30T02:19:22;13.73;;;6.63;;
70505;SDS011;58032;49.820;6.274;2024-01-30T02:21:49;15.50;;;6.60;;
70505;SDS011;58032;49.820;6.274;2024-01-30T02:24:16;14.45;;;6.95;;
70505;SDS011;58032;49.820;6.274;2024-01-30T02:26:43;15.20;;;6.45;;
70505;SDS011;58032;49.820;6.274;2024-01-30T02:29:10;19.58;;;6.70;;
70505;SDS011;58032;49.820;6.274;2024-01-30T02:31:37;15.15;;;6.07;;
70505;SDS011;58032;49.820;6.274;2024-01-30T02:34:04;12.30;;;6.13;;
70505;SDS011;58032;49.820;6.274;2024-01-30T02:36:31;14.38;;;6.82;;
70505;SDS011;58032;49.820;6.274;2024-01-30T02:38:59;18.13;;;6.78;;
70505;SDS011;58032;49.820;6.274;2024-01-30T02:41:25;13.18;;;6.30;;
70505;SDS011;58032;49.820;6.274;2024-01-30T02:43:53;12.73;;;5.97;;
70505;SDS011;58032;49.820;6.274;2024-01-30T02:46:19;21.20;;;6.60;;
70505;SDS011;58032;49.820;6.274;2024-01-30T02:48:46;14.00;;;6.25;;
70505;SDS011;58032;49.820;6.274;2024-01-30T02:51:14;17.75;;;6.25;;
70505;SDS011;58032;49.820;6.274;2024-01-30T02:53:41;15.02;;;5.97;;
70505;SDS011;58032;49.820;6.274;2024-01-30T02:56:08;13.68;;;5.97;;
70505;SDS011;58032;49.820;6.274;2024-01-30T02:58:36;30.10;;;6.70;;
70505;SDS011;58032;49.820;6.274;2024-01-30T03:01:03;13.15;;;6.50;;
70505;SDS011;58032;49.820;6.274;2024-01-30T03:03:30;34.42;;;6.93;;
70505;SDS011;58032;49.820;6.274;2024-01-30T03:05:57;14.25;;;6.03;;
70505;SDS011;58032;49.820;6.274;2024-01-30T03:08:25;18.10;;;6.75;;
70505;SDS011;58032;49.820;6.274;2024-01-30T03:10:52;14.90;;;7.20;;
70505;SDS011;58032;49.820;6.274;2024-01-30T03:13:18;17.33;;;5.95;;
70505;SDS011;58032;49.820;6.274;2024-01-30T03:15:46;23.70;;;6.60;;
70505;SDS011;58032;49.820;6.274;2024-01-30T03:18:13;14.32;;;5.90;;
70505;SDS011;58032;49.820;6.274;2024-01-30T03:20:39;15.63;;;7.25;;
70505;SDS011;58032;49.820;6.274;2024-01-30T03:23:06;14.80;;;6.50;;
70505;SDS011;58032;49.820;6.274;2024-01-30T03:25:33;15.05;;;6.43;;
70505;SDS011;58032;49.820;6.274;2024-01-30T03:28:00;15.98;;;7.38;;
70505;SDS011;58032;49.820;6.274;2024-01-30T03:30:27;15.82;;;6.90;;
70505;SDS011;58032;49.820;6.274;2024-01-30T03:32:54;16.65;;;6.63;;
70505;SDS011;58032;49.820;6.274;2024-01-30T03:35:21;19.97;;;7.00;;
70505;SDS011;58032;49.820;6.274;2024-01-30T03:37:48;16.17;;;5.90;;
70505;SDS011;58032;49.820;6.274;2024-01-30T03:40:15;14.35;;;6.93;;
70505;SDS011;58032;49.820;6.274;2024-01-30T03:42:42;17.60;;;7.60;;
70505;SDS011;58032;49.820;6.274;2024-01-30T03:45:09;17.38;;;6.78;;
70505;SDS011;58032;49.820;6.274;2024-01-30T03:47:36;15.87;;;6.70;;
70505;SDS011;58032;49.820;6.274;2024-01-30T03:50:03;16.92;;;6.95;;
70505;SDS011;58032;49.820;6.274;2024-01-30T03:52:31;16.55;;;7.20;;
70505;SDS011;58032;49.820;6.274;2024-01-30T03:54:58;17.30;;;6.57;;
70505;SDS011;58032;49.820;6.274;2024-01-30T03:57:25;19.45;;;7.13;;
70505;SDS011;58032;49.820;6.274;2024-01-30T03:59:52;21.07;;;7.23;;
70505;SDS011;58032;49.820;6.274;2024-01-30T04:02:20;115.45;;;8.98;;
70505;SDS011;58032;49.820;6.274;2024-01-30T04:04:47;143.52;;;9.80;;
70505;SDS011;58032;49.820;6.274;2024-01-30T04:07:14;39.30;;;6.75;;
70505;SDS011;58032;49.820;6.274;2024-01-30T04:09:41;37.95;;;6.90;;
70505;SDS011;58032;49.820;6.274;2024-01-30T04:12:08;23.80;;;6.33;;
70505;SDS011;58032;49.820;6.274;2024-01-30T04:14:35;14.35;;;6.22;;
70505;SDS011;58032;49.820;6.274;2024-01-30T04:17:02;38.22;;;6.47;;
70505;SDS011;58032;49.820;6.274;2024-01-30T04:19:29;35.92;;;6.40;;
70505;SDS011;58032;49.820;6.274;2024-01-30T04:21:56;16.25;;;5.88;;
70505;SDS011;58032;49.820;6.274;2024-01-30T04:24:23;16.57;;;6.67;;
70505;SDS011;58032;49.820;6.274;2024-01-30T04:26:50;18.58;;;6.32;;
70505;SDS011;58032;49.820;6.274;2024-01-30T04:29:17;14.52;;;6.68;;
70505;SDS011;58032;49.820;6.274;2024-01-30T04:31:44;14.43;;;6.25;;
70505;SDS011;58032;49.820;6.274;2024-01-30T04:34:11;86.28;;;7.70;;
70505;SDS011;58032;49.820;6.274;2024-01-30T04:36:38;26.70;;;6.70;;
70505;SDS011;58032;49.820;6.274;2024-01-30T04:39:05;17.00;;;7.13;;
70505;SDS011;58032;49.820;6.274;2024-01-30T04:41:31;15.00;;;6.65;;
70505;SDS011;58032;49.820;6.274;2024-01-30T04:43:58;15.15;;;7.00;;
70505;SDS011;58032;49.820;6.274;2024-01-30T04:46:26;14.20;;;7.07;;
70505;SDS011;58032;49.820;6.274;2024-01-30T04:48:53;21.03;;;8.00;;
70505;SDS011;58032;49.820;6.274;2024-01-30T04:51:20;17.27;;;7.53;;
70505;SDS011;58032;49.820;6.274;2024-01-30T04:53:47;18.08;;;8.05;;
70505;SDS011;58032;49.820;6.274;2024-01-30T04:56:13;17.35;;;7.55;;
70505;SDS011;58032;49.820;6.274;2024-01-30T04:58:40;20.08;;;6.88;;
70505;SDS011;58032;49.820;6.274;2024-01-30T05:01:07;14.37;;;6.40;;
70505;SDS011;58032;49.820;6.274;2024-01-30T05:03:34;15.95;;;7.05;;
70505;SDS011;58032;49.820;6.274;2024-01-30T05:06:01;18.08;;;7.30;;
70505;SDS011;58032;49.820;6.274;2024-01-30T05:08:28;14.18;;;6.75;;
70505;SDS011;58032;49.820;6.274;2024-01-30T05:10:55;16.75;;;6.50;;
70505;SDS011;58032;49.820;6.274;2024-01-30T05:13:22;15.23;;;7.30;;
70505;SDS011;58032;49.820;6.274;2024-01-30T05:15:50;15.45;;;6.50;;
70505;SDS011;58032;49.820;6.274;2024-01-30T05:18:16;16.48;;;7.53;;
70505;SDS011;58032;49.820;6.274;2024-01-30T05:20:44;14.15;;;6.55;;
70505;SDS011;58032;49.820;6.274;2024-01-30T05:23:11;13.48;;;6.50;;
70505;SDS011;58032;49.820;6.274;2024-01-30T05:25:38;14.63;;;6.40;;
70505;SDS011;58032;49.820;6.274;2024-01-30T05:28:05;18.45;;;7.15;;
70505;SDS011;58032;49.820;6.274;2024-01-30T05:30:32;14.88;;;7.35;;
70505;SDS011;58032;49.820;6.274;2024-01-30T05:32:59;14.85;;;6.50;;
70505;SDS011;58032;49.820;6.274;2024-01-30T05:35:26;13.85;;;7.07;;
70505;SDS011;58032;49.820;6.274;2024-01-30T05:37:53;13.70;;;6.47;;
70505;SDS011;58032;49.820;6.274;2024-01-30T05:40:20;18.33;;;6.93;;
70505;SDS011;58032;49.820;6.274;2024-01-30T05:42:47;19.70;;;7.63;;
70505;SDS011;58032;49.820;6.274;2024-01-30T05:45:14;15.50;;;6.53;;
70505;SDS011;58032;49.820;6.274;2024-01-30T05:47:41;14.73;;;6.07;;
70505;SDS011;58032;49.820;6.274;2024-01-30T05:50:08;16.40;;;6.37;;
70505;SDS011;58032;49.820;6.274;2024-01-30T05:52:35;14.77;;;6.60;;
70505;SDS011;58032;49.820;6.274;2024-01-30T05:55:02;14.90;;;6.63;;
70505;SDS011;58032;49.820;6.274;2024-01-30T05:57:30;15.02;;;6.97;;
70505;SDS011;58032;49.820;6.274;2024-01-30T05:59:57;15.93;;;6.95;;
70505;SDS011;58032;49.820;6.274;2024-01-30T06:02:23;13.00;;;6.23;;
70505;SDS011;58032;49.820;6.274;2024-01-30T06:04:50;15.82;;;6.55;;
70505;SDS011;58032;49.820;6.274;2024-01-30T06:07:17;16.98;;;6.80;;
70505;SDS011;58032;49.820;6.274;2024-01-30T06:09:45;18.77;;;6.97;;
70505;SDS011;58032;49.820;6.274;2024-01-30T06:12:13;16.48;;;7.25;;
70505;SDS011;58032;49.820;6.274;2024-01-30T06:14:40;16.03;;;6.60;;
70505;SDS011;58032;49.820;6.274;2024-01-30T06:17:10;16.27;;;6.70;;
70505;SDS011;58032;49.820;6.274;2024-01-30T06:19:38;12.07;;;6.07;;
70505;SDS011;58032;49.820;6.274;2024-01-30T06:22:05;16.25;;;7.15;;
70505;SDS011;58032;49.820;6.274;2024-01-30T06:24:33;15.15;;;5.78;;
70505;SDS011;58032;49.820;6.274;2024-01-30T06:27:01;13.53;;;6.33;;
70505;SDS011;58032;49.820;6.274;2024-01-30T06:29:28;17.10;;;6.82;;
70505;SDS011;58032;49.820;6.274;2024-01-30T06:31:55;19.30;;;6.28;;
70505;SDS011;58032;49.820;6.274;2024-01-30T06:34:22;13.18;;;6.13;;
70505;SDS011;58032;49.820;6.274;2024-01-30T06:36:50;15.25;;;6.40;;
70505;SDS011;58032;49.820;6.274;2024-01-30T06:39:16;16.83;;;7.60;;
70505;SDS011;58032;49.820;6.274;2024-01-30T06:41:44;12.35;;;6.32;;
70505;SDS011;58032;49.820;6.274;2024-01-30T06:44:13;14.02;;;6.70;;
70505;SDS011;58032;49.820;6.274;2024-01-30T06:46:39;16.60;;;6.57;;
70505;SDS011;58032;49.820;6.274;2024-01-30T06:49:06;16.63;;;6.93;;
70505;SDS011;58032;49.820;6.274;2024-01-30T06:51:33;17.83;;;6.07;;
70505;SDS011;58032;49.820;6.274;2024-01-30T06:54:00;15.38;;;6.50;;
70505;SDS011;58032;49.820;6.274;2024-01-30T06:56:28;14.15;;;6.10;;
70505;SDS011;58032;49.820;6.274;2024-01-30T06:58:55;14.23;;;6.53;;
70505;SDS011;58032;49.820;6.274;2024-01-30T07:01:27;15.63;;;6.60;;
70505;SDS011;58032;49.820;6.274;2024-01-30T07:03:55;14.20;;;6.97;;
70505;SDS011;58032;49.820;6.274;2024-01-30T07:06:22;17.35;;;7.05;;
70505;SDS011;58032;49.820;6.274;2024-01-30T07:08:49;14.05;;;6.78;;
70505;SDS011;58032;49.820;6.274;2024-01-30T07:11:20;17.20;;;6.82;;
70505;SDS011;58032;49.820;6.274;2024-01-30T07:13:51;13.80;;;6.57;;
70505;SDS011;58032;49.820;6.274;2024-01-30T07:16:18;17.17;;;6.77;;
70505;SDS011;58032;49.820;6.274;2024-01-30T07:18:45;13.95;;;6.38;;
70505;SDS011;58032;49.820;6.274;2024-01-30T07:21:12;13.63;;;6.45;;
70505;SDS011;58032;49.820;6.274;2024-01-30T07:23:39;18.30;;;6.60;;
70505;SDS011;58032;49.820;6.274;2024-01-30T07:26:08;12.43;;;6.28;;
70505;SDS011;58032;49.820;6.274;2024-01-30T07:28:35;14.03;;;5.60;;
70505;SDS011;58032;49.820;6.274;2024-01-30T07:31:02;11.63;;;5.50;;
70505;SDS011;58032;49.820;6.274;2024-01-30T07:33:30;15.05;;;6.80;;
70505;SDS011;58032;49.820;6.274;2024-01-30T07:35:56;16.55;;;6.78;;
70505;SDS011;58032;49.820;6.274;2024-01-30T07:38:23;17.17;;;8.13;;
70505;SDS011;58032;49.820;6.274;2024-01-30T07:40:50;18.57;;;8.30;;
70505;SDS011;58032;49.820;6.274;2024-01-30T07:43:17;20.95;;;9.15;;
70505;SDS011;58032;49.820;6.274;2024-01-30T07:45:46;23.67;;;10.50;;
70505;SDS011;58032;49.820;6.274;2024-01-30T07:48:13;16.95;;;7.50;;
70505;SDS011;58032;49.820;6.274;2024-01-30T07:50:40;13.70;;;7.05;;
70505;SDS011;58032;49.820;6.274;2024-01-30T07:53:08;13.13;;;6.83;;
70505;SDS011;58032;49.820;6.274;2024-01-30T07:55:34;13.68;;;5.90;;
70505;SDS011;58032;49.820;6.274;2024-01-30T07:58:02;13.30;;;6.00;;
70505;SDS011;58032;49.820;6.274;2024-01-30T08:00:30;15.30;;;6.20;;
70505;SDS011;58032;49.820;6.274;2024-01-30T08:02:57;13.45;;;5.75;;
70505;SDS011;58032;49.820;6.274;2024-01-30T08:05:25;17.97;;;6.10;;
70505;SDS011;58032;49.820;6.274;2024-01-30T08:07:52;11.75;;;6.18;;
70505;SDS011;58032;49.820;6.274;2024-01-30T08:10:19;12.57;;;5.78;;
70505;SDS011;58032;49.820;6.274;2024-01-30T08:12:47;15.65;;;7.38;;
70505;SDS011;58032;49.820;6.274;2024-01-30T08:15:14;14.27;;;6.50;;
70505;SDS011;58032;49.820;6.274;2024-01-30T08:17:41;11.90;;;5.97;;
70505;SDS011;58032;49.820;6.274;2024-01-30T08:20:08;15.07;;;6.30;;
70505;SDS011;58032;49.820;6.274;2024-01-30T08:22:40;12.18;;;5.68;;
70505;SDS011;58032;49.820;6.274;2024-01-30T08:25:07;13.32;;;5.80;;
70505;SDS011;58032;49.820;6.274;2024-01-30T08:27:36;14.20;;;5.78;;
70505;SDS011;58032;49.820;6.274;2024-01-30T08:30:05;15.27;;;5.83;;
70505;SDS011;58032;49.820;6.274;2024-01-30T08:32:33;14.85;;;6.55;;
70505;SDS011;58032;49.820;6.274;2024-01-30T08:35:00;12.45;;;5.85;;
70505;SDS011;58032;49.820;6.274;2024-01-30T08:37:30;12.32;;;5.45;;
70505;SDS011;58032;49.820;6.274;2024-01-30T08:39:57;13.45;;;5.63;;
70505;SDS011;58032;49.820;6.274;2024-01-30T08:42:24;14.17;;;6.33;;
70505;SDS011;58032;49.820;6.274;2024-01-30T08:44:51;14.90;;;6.40;;
70505;SDS011;58032;49.820;6.274;2024-01-30T08:47:19;12.55;;;5.78;;
70505;SDS011;58032;49.820;6.274;2024-01-30T08:49:47;14.18;;;5.70;;
70505;SDS011;58032;49.820;6.274;2024-01-30T08:52:14;10.40;;;5.10;;
70505;SDS011;58032;49.820;6.274;2024-01-30T08:54:41;12.07;;;6.00;;
70505;SDS011;58032;49.820;6.274;2024-01-30T08:57:08;13.05;;;5.32;;
70505;SDS011;58032;49.820;6.274;2024-01-30T08:59:35;11.88;;;5.10;;
70505;SDS011;58032;49.820;6.274;2024-01-30T09:02:02;13.32;;;5.65;;
70505;SDS011;58032;49.820;6.274;2024-01-30T09:04:32;14.25;;;6.25;;
70505;SDS011;58032;49.820;6.274;2024-01-30T09:06:59;10.77;;;5.27;;
70505;SDS011;58032;49.820;6.274;2024-01-30T09:09:26;15.10;;;5.47;;
70505;SDS011;58032;49.820;6.274;2024-01-30T09:11:53;13.00;;;5.78;;
70505;SDS011;58032;49.820;6.274;2024-01-30T09:14:20;12.52;;;5.72;;
70505;SDS011;58032;49.820;6.274;2024-01-30T09:16:47;11.55;;;5.60;;
70505;SDS011;58032;49.820;6.274;2024-01-30T09:19:15;11.70;;;5.33;;
70505;SDS011;58032;49.820;6.274;2024-01-30T09:21:43;14.80;;;6.43;;
70505;SDS011;58032;49.820;6.274;2024-01-30T09:24:09;11.48;;;5.65;;
70505;SDS011;58032;49.820;6.274;2024-01-30T09:26:36;11.57;;;5.35;;
70505;SDS011;58032;49.820;6.274;2024-01-30T09:29:04;12.73;;;5.97;;
70505;SDS011;58032;49.820;6.274;2024-01-30T09:31:31;14.60;;;5.73;;
70505;SDS011;58032;49.820;6.274;2024-01-30T09:33:58;10.95;;;5.43;;
70505;SDS011;58032;49.820;6.274;2024-01-30T09:36:24;12.07;;;5.97;;
70505;SDS011;58032;49.820;6.274;2024-01-30T09:38:51;12.43;;;5.90;;
70505;SDS011;58032;49.820;6.274;2024-01-30T09:41:19;14.30;;;5.50;;
70505;SDS011;58032;49.820;6.274;2024-01-30T09:43:47;15.50;;;6.30;;
70505;SDS011;58032;49.820;6.274;2024-01-30T09:46:17;14.20;;;5.53;;
70505;SDS011;58032;49.820;6.274;2024-01-30T09:48:47;12.40;;;5.13;;
70505;SDS011;58032;49.820;6.274;2024-01-30T09:51:14;11.80;;;5.82;;
70505;SDS011;58032;49.820;6.274;2024-01-30T09:53:42;11.82;;;5.80;;
70505;SDS011;58032;49.820;6.274;2024-01-30T09:56:12;10.20;;;5.17;;
70505;SDS011;58032;49.820;6.274;2024-01-30T09:58:41;10.43;;;5.43;;
70505;SDS011;58032;49.820;6.274;2024-01-30T10:01:08;11.77;;;5.57;;
70505;SDS011;58032;49.820;6.274;2024-01-30T10:03:35;10.77;;;5.13;;
70505;SDS011;58032;49.820;6.274;2024-01-30T10:06:02;12.25;;;5.53;;
70505;SDS011;58032;49.820;6.274;2024-01-30T10:08:29;13.67;;;5.27;;
70505;SDS011;58032;49.820;6.274;2024-01-30T10:10:56;13.05;;;5.40;;
70505;SDS011;58032;49.820;6.274;2024-01-30T10:13:23;12.48;;;5.78;;
70505;SDS011;58032;49.820;6.274;2024-01-30T10:15:50;10.75;;;5.47;;
70505;SDS011;58032;49.820;6.274;2024-01-30T10:18:19;13.73;;;5.80;;
70505;SDS011;58032;49.820;6.274;2024-01-30T10:20:46;11.87;;;5.33;;
70505;SDS011;58032;49.820;6.274;2024-01-30T10:23:13;13.93;;;5.60;;
70505;SDS011;58032;49.820;6.274;2024-01-30T10:25:40;10.35;;;5.10;;
70505;SDS011;58032;49.820;6.274;2024-01-30T10:28:08;10.95;;;5.10;;
70505;SDS011;58032;49.820;6.274;2024-01-30T10:30:35;13.10;;;5.57;;
70505;SDS011;58032;49.820;6.274;2024-01-30T10:33:02;12.83;;;4.90;;
70505;SDS011;58032;49.820;6.274;2024-01-30T10:35:30;10.18;;;5.53;;
70505;SDS011;58032;49.820;6.274;2024-01-30T10:37:57;10.60;;;5.07;;
70505;SDS011;58032;49.820;6.274;2024-01-30T10:40:27;11.20;;;5.18;;
70505;SDS011;58032;49.820;6.274;2024-01-30T10:42:55;10.63;;;5.30;;
70505;SDS011;58032;49.820;6.274;2024-01-30T10:45:23;10.37;;;5.00;;
70505;SDS011;58032;49.820;6.274;2024-01-30T10:47:54;13.35;;;4.85;;
70505;SDS011;58032;49.820;6.274;2024-01-30T10:50:25;10.15;;;4.78;;
70505;SDS011;58032;49.820;6.274;2024-01-30T10:52:54;10.30;;;4.28;;
70505;SDS011;58032;49.820;6.274;2024-01-30T10:55:23;24.52;;;11.50;;
70505;SDS011;58032;49.820;6.274;2024-01-30T10:57:52;11.47;;;4.93;;
70505;SDS011;58032;49.820;6.274;2024-01-30T11:00:20;9.93;;;4.80;;
70505;SDS011;58032;49.820;6.274;2024-01-30T11:02:51;12.43;;;4.85;;
70505;SDS011;58032;49.820;6.274;2024-01-30T11:05:25;11.05;;;4.82;;
70505;SDS011;58032;49.820;6.274;2024-01-30T11:07:56;10.30;;;4.50;;
70505;SDS011;58032;49.820;6.274;2024-01-30T11:10:25;8.37;;;4.20;;
70505;SDS011;58032;49.820;6.274;2024-01-30T11:12:52;12.60;;;5.03;;
70505;SDS011;58032;49.820;6.274;2024-01-30T11:15:19;12.05;;;5.13;;
70505;SDS011;58032;49.820;6.274;2024-01-30T11:20:21;11.95;;;4.85;;
70505;SDS011;58032;49.820;6.274;2024-01-30T11:22:52;10.33;;;5.30;;
70505;SDS011;58032;49.820;6.274;2024-01-30T11:25:20;15.00;;;5.68;;
70505;SDS011;58032;49.820;6.274;2024-01-30T11:27:50;10.02;;;5.20;;
70505;SDS011;58032;49.820;6.274;2024-01-30T11:30:28;9.00;;;4.65;;
70505;SDS011;58032;49.820;6.274;2024-01-30T11:35:37;7.83;;;4.30;;
70505;SDS011;58032;49.820;6.274;2024-01-30T11:38:06;11.00;;;5.18;;
70505;SDS011;58032;49.820;6.274;2024-01-30T11:40:37;8.90;;;4.53;;
70505;SDS011;58032;49.820;6.274;2024-01-30T11:43:06;9.38;;;4.68;;
70505;SDS011;58032;49.820;6.274;2024-01-30T11:45:34;10.43;;;4.88;;
70505;SDS011;58032;49.820;6.274;2024-01-30T11:48:03;9.60;;;4.83;;
70505;SDS011;58032;49.820;6.274;2024-01-30T11:50:34;9.93;;;5.15;;
70505;SDS011;58032;49.820;6.274;2024-01-30T11:53:01;10.82;;;4.68;;
70505;SDS011;58032;49.820;6.274;2024-01-30T11:55:29;8.70;;;4.35;;
70505;SDS011;58032;49.820;6.274;2024-01-30T11:57:58;11.25;;;5.05;;
70505;SDS011;58032;49.820;6.274;2024-01-30T12:00:26;10.93;;;4.73;;
70505;SDS011;58032;49.820;6.274;2024-01-30T12:02:53;12.30;;;5.07;;
70505;SDS011;58032;49.820;6.274;2024-01-30T12:05:24;16.75;;;5.05;;
70505;SDS011;58032;49.820;6.274;2024-01-30T12:07:52;11.10;;;5.32;;
70505;SDS011;58032;49.820;6.274;2024-01-30T12:10:20;19.33;;;8.20;;
70505;SDS011;58032;49.820;6.274;2024-01-30T12:12:51;10.60;;;4.97;;
70505;SDS011;58032;49.820;6.274;2024-01-30T12:15:19;11.25;;;4.85;;
70505;SDS011;58032;49.820;6.274;2024-01-30T12:17:48;10.43;;;4.50;;
70505;SDS011;58032;49.820;6.274;2024-01-30T12:20:18;12.13;;;4.00;;
70505;SDS011;58032;49.820;6.274;2024-01-30T12:22:47;13.65;;;4.70;;
70505;SDS011;58032;49.820;6.274;2024-01-30T12:25:16;7.93;;;3.87;;
70505;SDS011;58032;49.820;6.274;2024-01-30T12:27:46;10.90;;;4.25;;
70505;SDS011;58032;49.820;6.274;2024-01-30T12:30:18;10.48;;;4.28;;
70505;SDS011;58032;49.820;6.274;2024-01-30T12:32:47;9.95;;;4.22;;
70505;SDS011;58032;49.820;6.274;2024-01-30T12:35:17;11.70;;;4.90;;
70505;SDS011;58032;49.820;6.274;2024-01-30T12:37:46;10.13;;;4.07;;
70505;SDS011;58032;49.820;6.274;2024-01-30T12:40:14;12.93;;;5.32;;
70505;SDS011;58032;49.820;6.274;2024-01-30T12:42:41;11.02;;;4.38;;
70505;SDS011;58032;49.820;6.274;2024-01-30T12:45:09;9.80;;;4.32;;
70505;SDS011;58032;49.820;6.274;2024-01-30T12:47:36;11.68;;;4.50;;
70505;SDS011;58032;49.820;6.274;2024-01-30T12:50:04;11.93;;;4.70;;
70505;SDS011;58032;49.820;6.274;2024-01-30T12:52:31;10.48;;;4.63;;
70505;SDS011;58032;49.820;6.274;2024-01-30T12:54:58;16.50;;;5.30;;
70505;SDS011;58032;49.820;6.274;2024-01-30T12:57:25;13.43;;;5.32;;
70505;SDS011;58032;49.820;6.274;2024-01-30T12:59:52;8.38;;;4.75;;
70505;SDS011;58032;49.820;6.274;2024-01-30T13:02:19;16.20;;;5.67;;
70505;SDS011;58032;49.820;6.274;2024-01-30T13:04:46;9.07;;;4.30;;
70505;SDS011;58032;49.820;6.274;2024-01-30T13:07:15;10.73;;;4.85;;
70505;SDS011;58032;49.820;6.274;2024-01-30T13:09:42;12.45;;;5.20;;
70505;SDS011;58032;49.820;6.274;2024-01-30T13:12:09;8.75;;;4.60;;
70505;SDS011;58032;49.820;6.274;2024-01-30T13:14:36;15.50;;;6.20;;
70505;SDS011;58032;49.820;6.274;2024-01-30T13:17:03;15.77;;;6.28;;
70505;SDS011;58032;49.820;6.274;2024-01-30T13:19:30;11.70;;;5.30;;
70505;SDS011;58032;49.820;6.274;2024-01-30T13:21:57;18.65;;;7.18;;
70505;SDS011;58032;49.820;6.274;2024-01-30T13:24:24;14.00;;;5.40;;
70505;SDS011;58032;49.820;6.274;2024-01-30T13:26:51;13.07;;;4.80;;
70505;SDS011;58032;49.820;6.274;2024-01-30T13:29:18;7.85;;;3.72;;
70505;SDS011;58032;49.820;6.274;2024-01-30T13:31:45;14.88;;;5.78;;
70505;SDS011;58032;49.820;6.274;2024-01-30T13:34:13;14.93;;;5.90;;
70505;SDS011;58032;49.820;6.274;2024-01-30T13:36:40;14.02;;;5.63;;
70505;SDS011;58032;49.820;6.274;2024-01-30T13:39:08;19.80;;;6.10;;
70505;SDS011;58032;49.820;6.274;2024-01-30T13:41:37;10.43;;;4.43;;
70505;SDS011;58032;49.820;6.274;2024-01-30T13:44:08;12.95;;;5.63;;
70505;SDS011;58032;49.820;6.274;2024-01-30T13:46:35;12.52;;;4.65;;
70505;SDS011;58032;49.820;6.274;2024-01-30T13:49:02;10.55;;;4.95;;
70505;SDS011;58032;49.820;6.274;2024-01-30T13:51:29;11.80;;;4.80;;
70505;SDS011;58032;49.820;6.274;2024-01-30T13:53:56;11.77;;;5.47;;
70505;SDS011;58032;49.820;6.274;2024-01-30T13:56:24;9.40;;;4.35;;
70505;SDS011;58032;49.820;6.274;2024-01-30T13:58:53;12.50;;;4.82;;
70505;SDS011;58032;49.820;6.274;2024-01-30T14:01:22;10.30;;;4.55;;
70505;SDS011;58032;49.820;6.274;2024-01-30T14:03:49;13.73;;;5.00;;
70505;SDS011;58032;49.820;6.274;2024-01-30T14:06:16;11.55;;;4.95;;
70505;SDS011;58032;49.820;6.274;2024-01-30T14:08:43;15.73;;;5.05;;
70505;SDS011;58032;49.820;6.274;2024-01-30T14:11:12;10.15;;;4.78;;
70505;SDS011;58032;49.820;6.274;2024-01-30T14:13:38;13.55;;;4.50;;
70505;SDS011;58032;49.820;6.274;2024-01-30T14:16:05;16.67;;;8.23;;
70505;SDS011;58032;49.820;6.274;2024-01-30T14:18:33;11.80;;;5.18;;
70505;SDS011;58032;49.820;6.274;2024-01-30T14:21:00;11.07;;;5.18;;
70505;SDS011;58032;49.820;6.274;2024-01-30T14:23:27;10.82;;;4.28;;
70505;SDS011;58032;49.820;6.274;2024-01-30T14:25:54;10.43;;;3.85;;
70505;SDS011;58032;49.820;6.274;2024-01-30T14:28:22;10.17;;;4.70;;
70505;SDS011;58032;49.820;6.274;2024-01-30T14:30:49;9.88;;;5.32;;
70505;SDS011;58032;49.820;6.274;2024-01-30T14:33:16;10.80;;;4.85;;
70505;SDS011;58032;49.820;6.274;2024-01-30T14:35:43;14.32;;;5.10;;
70505;SDS011;58032;49.820;6.274;2024-01-30T14:38:10;8.75;;;4.13;;
70505;SDS011;58032;49.820;6.274;2024-01-30T14:40:37;10.50;;;4.30;;
70505;SDS011;58032;49.820;6.274;2024-01-30T14:43:05;10.00;;;4.75;;